Airfield :
LOGIN :

Register | Disclaimer

   EN    FR    IT 

 










Legend :    VFR   Marginal VFR   IFR   Intensive IFR   Very Intensive IFR
Visi :
Ceiling :
>= 8 km
>= 3000ft
5 to 8 km
1000 to 3000 ft
1500m to 5 km
500 to 1000 ft
800 to 1500m
200 to 500 ft
< 800m
< 200 ft
Symbols :   Thunderstorms  Fog  Heavy snow  Heavy precipitations  Wind > 20 kt
SIGMETs :     Misc.  Thunderstorms  Icing  Turbulence  Mountain Waves  Volcanic Ashes






- Airport Elevation : 74 ft
- IATA code : EIN


EHEH - Eindhoven

CURRENT METAR :
  • 232355Z AUTO 21009KT 9999 BKN069 12/11 Q1011 BLU

EXPIRED METARs :
  • 232325Z AUTO 21008KT 9999 BKN061 OVC069 12/11 Q1011 BLU
  • 232255Z AUTO 21007KT 9999 NCD 12/11 Q1011 BLU
  • 232225Z AUTO 21008KT 9999 NCD 12/11 Q1011 BLU
  • 232206Z AUTO 21007KT 9999 FEW022 BKN025 BKN031 12/11 Q1011 BLU
  • 232155Z AUTO 21006KT 9999 FEW022 SCT026 12/10 Q1011 BLU
  • 232125Z AUTO 21006KT 9999 FEW029 SCT061 12/11 Q1011 BLU

TAF TAF EHEH
Valid from the 24 at 00:00 until the 25 at 06:00 UTC


232351Z 2400/2506 20008KT 9999 FEW025 BKN040
PROB30
TEMPO 2318/2410 24015G25KT SCT015 SCT018CB BKN025
TEMPO 2404/2410 SCT008 BKN012
BECMG 2407/2410 20013KT
BECMG 2417/2419 19016G26KT
PROB40
TEMPO 2504/2506 SCT012 BKN015CB BKN030



MET'MAP, your aeronautical weather chart ! - Copyright ORBIFLY December 2007 - Disclaimer

ORBIFLY MET'MAP TEAM :

Programming & Development : Alexandra Zaïnal
Concept & original design : Baudouin d'Aumeries
Assistance for programming : Marc-Olivier Méhu
Technical & hardware support : Manuel Goepfert

Contact : metmap@orbifly.com




SOURCES & CREDITS :

   NOAA